Terminal Aerodrome Forecast
Issued by NWS

Home | Current Version | Previous Version | Text Only | Print | Product List | Glossary Off
Versions: 1 2 3 4 5 6 7 8 9 10 11 12 13 14 15 16 17 18
000 FTUS41 KBOX 250818 AAA TAFHYA TAF AMD KHYA 250818Z 2508/2606 28004KT P6SM SCT050 FM251600 26009KT P6SM FEW250 FM260200 22011G18KT P6SM BKN090=

USA.gov is the U.S. government's official web portal to all federal, state and local government web resources and services.